Mayo, Canada
Current Conditions -  °F | °C
As of 8:00 PM on Thursday 27 Nov 2014 (Local Time) from CYMA Reporting Station
Scattered Clouds Scattered Clouds  
Wind Chill: -26°   Ceiling: Unl
Heat Index: -26°   Visibility: 20mi
Dew Point: -31°   Wind: 2mph
Humidity: 76%   Direction: NA
Pressure: 30.46"   Gusts: NA
Location:  63.6°N, 135.88°W
Report Text: CYMA 280400Z VRB02KT 20SM FEW014 SCT220 M32/M35 A3046 RMK ST2CI1 SLP388
Loading
Personal Weather Stations






























Interactive Weather Map New forecast layout! Learn more

10-Day Weather Forecast

Advertisements
Track Severe Weather on mobile